createdAt,value
2017-12-30T00:02:01.365Z,2.10
2017-12-30T00:04:35.015Z,2.10
2017-12-30T00:07:08.753Z,2.00
2017-12-30T00:09:45.174Z,1.90
2017-12-30T00:12:19.008Z,1.80
2017-12-30T00:14:53.755Z,1.80
2017-12-30T00:17:28.930Z,1.70
2017-12-30T00:20:02.635Z,1.70
2017-12-30T00:22:36.366Z,1.70
2017-12-30T00:25:10.156Z,1.60
2017-12-30T00:27:45.674Z,1.60
2017-12-30T00:30:19.390Z,1.60
2017-12-30T00:32:53.730Z,1.60
2017-12-30T00:35:27.482Z,1.70
2017-12-30T00:38:02.246Z,1.70
2017-12-30T00:40:36.857Z,1.70
2017-12-30T00:43:10.560Z,1.80
2017-12-30T00:45:46.106Z,2.00
2017-12-30T00:48:19.857Z,2.10
2017-12-30T00:50:53.663Z,2.20
2017-12-30T00:53:27.429Z,2.30
2017-12-30T00:56:01.029Z,2.30
2017-12-30T00:58:37.817Z,2.30
2017-12-30T01:01:11.602Z,2.40
2017-12-30T01:03:46.595Z,2.40
2017-12-30T01:06:20.236Z,2.40
2017-12-30T01:08:54.765Z,2.40
2017-12-30T01:11:29.292Z,2.40
2017-12-30T01:14:03.810Z,2.50
2017-12-30T01:16:39.229Z,2.50
2017-12-30T01:19:13.068Z,2.50
2017-12-30T01:21:47.520Z,2.60
2017-12-30T01:24:22.142Z,2.60
2017-12-30T01:26:56.973Z,2.60
2017-12-30T01:29:30.656Z,2.60
2017-12-30T01:32:05.891Z,2.60
2017-12-30T01:34:40.398Z,2.60
2017-12-30T01:37:14.282Z,2.60
2017-12-30T01:39:48.113Z,2.60
2017-12-30T01:42:22.921Z,2.70
2017-12-30T01:44:57.240Z,2.70
2017-12-30T01:47:30.972Z,2.80
2017-12-30T01:50:04.792Z,2.80
2017-12-30T01:52:39.277Z,2.90
2017-12-30T01:55:13.105Z,3.00
2017-12-30T01:57:47.553Z,3.10
2017-12-30T02:00:22.814Z,3.10
2017-12-30T02:02:56.647Z,3.10
2017-12-30T02:05:30.426Z,3.10
2017-12-30T02:08:05.015Z,3.10
2017-12-30T02:10:38.718Z,3.10
2017-12-30T02:13:13.208Z,3.20
2017-12-30T02:15:47.599Z,3.20
2017-12-30T02:18:21.268Z,3.20
2017-12-30T02:20:55.092Z,3.20
2017-12-30T02:23:28.813Z,3.20
2017-12-30T02:26:02.576Z,3.20
2017-12-30T02:28:36.498Z,3.20
2017-12-30T02:31:11.164Z,3.20
2017-12-30T02:33:45.847Z,3.20
2017-12-30T02:36:19.700Z,3.20
2017-12-30T02:38:54.600Z,3.30
2017-12-30T02:41:28.475Z,3.30
2017-12-30T02:44:03.179Z,3.30
2017-12-30T02:46:37.048Z,3.30
2017-12-30T02:49:10.815Z,3.40
2017-12-30T02:51:44.575Z,3.50
2017-12-30T02:54:18.273Z,3.60
2017-12-30T02:56:52.091Z,3.70
2017-12-30T02:59:25.732Z,3.70
2017-12-30T03:01:59.715Z,3.80
2017-12-30T03:04:33.805Z,3.80
2017-12-30T03:07:07.599Z,3.80
2017-12-30T03:09:41.423Z,3.90
2017-12-30T03:12:16.336Z,3.90
2017-12-30T03:14:50.828Z,3.90
2017-12-30T03:17:25.391Z,4.00
2017-12-30T03:19:59.959Z,4.00
2017-12-30T03:22:33.550Z,4.10
2017-12-30T03:25:07.319Z,4.10
2017-12-30T03:27:41.060Z,4.00
2017-12-30T03:30:17.012Z,4.10
2017-12-30T03:32:53.125Z,4.10
2017-12-30T03:35:27.034Z,4.10
2017-12-30T03:38:00.895Z,4.10
2017-12-30T03:40:34.755Z,4.10
2017-12-30T03:43:08.470Z,4.10
2017-12-30T03:45:42.177Z,4.10
2017-12-30T03:48:17.162Z,4.10
2017-12-30T03:50:50.972Z,4.10
2017-12-30T03:53:24.757Z,4.20
2017-12-30T03:55:59.789Z,4.20
2017-12-30T03:58:34.525Z,4.20
2017-12-30T04:01:08.312Z,4.20
2017-12-30T04:03:42.083Z,4.30
2017-12-30T04:06:15.798Z,4.30
2017-12-30T04:08:50.425Z,4.30
2017-12-30T04:11:25.078Z,4.30
2017-12-30T04:14:00.220Z,4.30
2017-12-30T04:16:33.836Z,4.30
2017-12-30T04:19:07.664Z,4.30
2017-12-30T04:21:41.439Z,4.30
2017-12-30T04:24:15.327Z,4.30
2017-12-30T04:26:50.229Z,4.30
2017-12-30T04:29:24.596Z,4.40
2017-12-30T04:31:58.249Z,4.40
2017-12-30T04:34:32.130Z,4.40
2017-12-30T04:37:06.050Z,4.40
2017-12-30T04:39:40.549Z,4.40
2017-12-30T04:42:15.048Z,4.40
2017-12-30T04:44:49.170Z,4.40
2017-12-30T04:47:23.006Z,4.40
2017-12-30T04:49:56.754Z,4.40
2017-12-30T04:52:30.585Z,4.40
2017-12-30T04:55:05.183Z,4.40
2017-12-30T04:57:40.968Z,4.40
2017-12-30T05:00:14.721Z,4.40
2017-12-30T05:02:48.454Z,4.40
2017-12-30T05:05:22.286Z,4.40
2017-12-30T05:07:56.027Z,4.40
2017-12-30T05:10:29.663Z,4.40
2017-12-30T05:13:03.425Z,4.40
2017-12-30T05:15:37.255Z,4.40
2017-12-30T05:18:11.081Z,4.40
2017-12-30T05:20:44.865Z,4.40
2017-12-30T05:23:18.561Z,4.40
2017-12-30T05:25:52.384Z,4.40
2017-12-30T05:28:26.124Z,4.50
2017-12-30T05:31:00.029Z,4.40
2017-12-30T05:33:33.736Z,4.40
2017-12-30T05:36:07.599Z,4.40
2017-12-30T05:38:42.309Z,4.40
2017-12-30T05:41:16.797Z,4.40
2017-12-30T05:43:50.485Z,4.40
2017-12-30T05:46:24.237Z,4.40
2017-12-30T05:48:58.106Z,4.30
2017-12-30T05:51:32.468Z,4.30
2017-12-30T05:54:06.134Z,4.30
2017-12-30T05:56:40.879Z,4.20
2017-12-30T05:59:14.739Z,4.10
2017-12-30T06:01:48.439Z,4.10
2017-12-30T06:04:22.283Z,4.00
2017-12-30T06:06:57.059Z,3.90
2017-12-30T06:09:30.699Z,3.90
2017-12-30T06:12:05.061Z,3.90
2017-12-30T06:14:38.871Z,3.80
2017-12-30T06:17:13.805Z,3.80
2017-12-30T06:19:47.639Z,3.80
2017-12-30T06:22:22.136Z,3.90
2017-12-30T06:24:55.806Z,3.80
2017-12-30T06:27:29.776Z,3.80
2017-12-30T06:30:03.641Z,3.80
2017-12-30T06:32:38.115Z,3.70
2017-12-30T06:35:12.785Z,3.80
2017-12-30T06:37:47.905Z,3.70
2017-12-30T06:40:22.585Z,3.70
2017-12-30T06:42:56.300Z,3.70
2017-12-30T06:45:30.052Z,3.70
2017-12-30T06:48:03.783Z,3.70
2017-12-30T06:50:37.664Z,3.70
2017-12-30T06:53:11.443Z,3.70
2017-12-30T06:55:45.966Z,3.70
2017-12-30T06:58:19.781Z,3.70
2017-12-30T07:00:53.581Z,3.70
2017-12-30T07:03:27.395Z,3.70
2017-12-30T07:06:01.213Z,3.70
2017-12-30T07:08:35.095Z,3.70
2017-12-30T07:11:09.187Z,3.70
2017-12-30T07:13:42.928Z,3.70
2017-12-30T07:16:17.424Z,3.70
2017-12-30T07:18:51.285Z,3.70
2017-12-30T07:21:25.166Z,3.70
2017-12-30T07:23:58.990Z,3.70
2017-12-30T07:26:32.703Z,3.70
2017-12-30T07:29:06.603Z,3.70
2017-12-30T07:31:40.965Z,3.70
2017-12-30T07:34:14.620Z,3.70
2017-12-30T07:36:48.168Z,3.70
2017-12-30T07:39:21.799Z,3.80
2017-12-30T07:41:55.582Z,3.80
2017-12-30T07:44:29.401Z,3.80
2017-12-30T07:47:03.213Z,3.80
2017-12-30T07:49:37.690Z,3.70
2017-12-30T07:52:12.148Z,3.80
2017-12-30T07:54:45.872Z,3.80
2017-12-30T07:57:19.444Z,3.80
2017-12-30T07:59:53.302Z,3.80
2017-12-30T08:02:27.040Z,3.80
2017-12-30T08:05:00.835Z,3.90
2017-12-30T08:07:35.233Z,3.90
2017-12-30T08:10:08.993Z,3.90
2017-12-30T08:12:42.704Z,3.90
2017-12-30T08:15:16.569Z,3.90
2017-12-30T08:17:50.287Z,3.90
2017-12-30T08:20:25.256Z,3.90
2017-12-30T08:22:59.264Z,3.90
2017-12-30T08:25:33.328Z,3.90
2017-12-30T08:28:07.084Z,4.00
2017-12-30T08:30:41.146Z,4.00
2017-12-30T08:33:14.836Z,4.10
2017-12-30T08:35:48.628Z,4.10
2017-12-30T08:38:22.397Z,4.10
2017-12-30T08:40:56.250Z,4.10
2017-12-30T08:43:30.032Z,4.10
2017-12-30T08:46:04.644Z,4.10
2017-12-30T08:48:38.386Z,4.10
2017-12-30T08:51:12.192Z,4.10
2017-12-30T08:53:46.175Z,4.10
2017-12-30T08:56:20.688Z,4.20
2017-12-30T08:58:55.243Z,4.20
2017-12-30T09:01:28.843Z,4.20
2017-12-30T09:04:03.361Z,4.20
2017-12-30T09:06:37.082Z,4.20
2017-12-30T09:09:10.869Z,4.20
2017-12-30T09:11:44.611Z,4.30
2017-12-30T09:14:18.338Z,4.30
2017-12-30T09:16:52.573Z,4.40
2017-12-30T09:19:26.153Z,4.50
2017-12-30T09:21:59.948Z,4.50
2017-12-30T09:24:33.666Z,4.50
2017-12-30T09:27:07.430Z,4.50
2017-12-30T09:29:42.092Z,4.40
2017-12-30T09:32:15.777Z,4.40
2017-12-30T09:34:50.608Z,4.30
2017-12-30T09:37:25.948Z,4.20
2017-12-30T09:40:00.025Z,4.20
2017-12-30T09:42:33.740Z,4.20
2017-12-30T09:45:07.461Z,4.10
2017-12-30T09:47:41.232Z,4.10
2017-12-30T09:50:15.027Z,4.10
2017-12-30T09:52:49.559Z,4.10
2017-12-30T09:55:23.371Z,4.10
2017-12-30T09:57:57.318Z,4.10
2017-12-30T10:00:31.092Z,4.10
2017-12-30T10:03:05.731Z,4.20
2017-12-30T10:05:40.513Z,4.30
2017-12-30T10:08:14.272Z,4.30
2017-12-30T10:10:47.911Z,4.30
2017-12-30T10:13:21.710Z,4.30
2017-12-30T10:15:55.498Z,4.30
2017-12-30T10:18:29.303Z,4.30
2017-12-30T10:21:03.077Z,4.40
2017-12-30T10:23:36.873Z,4.30
2017-12-30T10:26:10.637Z,4.20
2017-12-30T10:28:44.393Z,4.10
2017-12-30T10:31:18.538Z,4.00
2017-12-30T10:33:53.262Z,4.00
2017-12-30T10:36:27.773Z,4.00
2017-12-30T10:39:01.456Z,4.00
2017-12-30T10:41:35.056Z,4.10
2017-12-30T10:44:08.844Z,4.10
2017-12-30T10:46:42.589Z,4.10
2017-12-30T10:49:16.314Z,4.10
2017-12-30T10:51:51.074Z,4.10
2017-12-30T10:54:25.054Z,4.10
2017-12-30T10:56:59.288Z,4.00
2017-12-30T10:59:33.752Z,4.10
2017-12-30T11:02:07.370Z,4.00
2017-12-30T11:04:41.259Z,4.10
2017-12-30T11:07:15.840Z,4.00
2017-12-30T11:09:49.534Z,4.10
2017-12-30T11:12:24.057Z,4.10
2017-12-30T11:14:58.556Z,4.10
2017-12-30T11:17:32.664Z,4.10
2017-12-30T11:20:06.462Z,4.10
2017-12-30T11:22:40.986Z,4.10
2017-12-30T11:25:14.623Z,4.00
2017-12-30T11:27:48.341Z,4.00
2017-12-30T11:30:22.104Z,4.00
2017-12-30T11:32:56.401Z,4.00
2017-12-30T11:35:30.539Z,4.00
2017-12-30T11:38:05.173Z,4.00
2017-12-30T11:40:38.773Z,4.00
2017-12-30T11:43:12.532Z,4.10
2017-12-30T11:45:46.264Z,4.10
2017-12-30T11:48:20.141Z,4.00
2017-12-30T11:50:54.533Z,4.10
2017-12-30T11:53:28.305Z,4.10
2017-12-30T11:56:02.037Z,4.10
2017-12-30T11:58:35.915Z,4.10
2017-12-30T12:01:09.488Z,4.10
2017-12-30T12:03:43.263Z,4.10
2017-12-30T12:06:17.232Z,4.10
2017-12-30T12:08:51.040Z,4.20
2017-12-30T12:11:24.848Z,4.20
2017-12-30T12:13:59.448Z,4.30
2017-12-30T12:16:33.945Z,4.30
2017-12-30T12:19:07.639Z,4.20
2017-12-30T12:21:41.470Z,4.30
2017-12-30T12:24:16.158Z,4.40
2017-12-30T12:26:49.912Z,4.40
2017-12-30T12:29:23.532Z,4.50
2017-12-30T12:31:57.324Z,4.50
2017-12-30T12:34:32.013Z,4.50
2017-12-30T12:37:06.384Z,4.50
2017-12-30T12:39:40.804Z,4.60
2017-12-30T12:42:15.510Z,4.60
2017-12-30T12:44:51.174Z,4.70
2017-12-30T12:47:26.631Z,4.70
2017-12-30T12:50:01.716Z,4.70
2017-12-30T12:52:39.476Z,4.70
2017-12-30T12:55:13.169Z,4.70
2017-12-30T12:57:47.802Z,4.70
2017-12-30T13:00:21.515Z,4.80
2017-12-30T13:02:55.378Z,4.80
2017-12-30T13:05:29.150Z,4.80
2017-12-30T13:08:04.143Z,4.90
2017-12-30T13:10:40.195Z,4.90
2017-12-30T13:13:15.102Z,5.00
2017-12-30T13:15:51.034Z,4.90
2017-12-30T13:18:24.834Z,5.00
2017-12-30T13:20:59.023Z,5.00
2017-12-30T13:23:33.266Z,5.10
2017-12-30T13:26:06.880Z,5.10
2017-12-30T13:28:42.413Z,5.10
2017-12-30T13:31:16.946Z,5.20
2017-12-30T13:33:50.655Z,5.10
2017-12-30T13:36:24.412Z,5.20
2017-12-30T13:38:58.130Z,5.20
2017-12-30T13:41:32.005Z,5.30
2017-12-30T13:44:07.635Z,5.30
2017-12-30T13:46:42.608Z,5.30
2017-12-30T13:49:18.650Z,5.40
2017-12-30T13:51:53.916Z,5.50
2017-12-30T13:54:29.046Z,5.70
2017-12-30T13:57:08.427Z,5.80
2017-12-30T13:59:45.161Z,5.70
2017-12-30T14:02:19.710Z,5.80
2017-12-30T14:04:53.518Z,5.90
2017-12-30T14:07:27.348Z,5.90
2017-12-30T14:10:02.151Z,5.90
2017-12-30T14:12:35.838Z,6.10
2017-12-30T14:15:09.644Z,6.10
2017-12-30T14:17:44.180Z,6.30
2017-12-30T14:20:17.907Z,6.30
2017-12-30T14:22:51.777Z,6.30
2017-12-30T14:25:26.299Z,6.30
2017-12-30T14:28:00.092Z,6.30
2017-12-30T14:30:33.811Z,6.30
2017-12-30T14:33:07.633Z,6.30
2017-12-30T14:35:42.228Z,6.40
2017-12-30T14:38:15.987Z,6.30
2017-12-30T14:40:49.766Z,6.40
2017-12-30T14:43:23.572Z,6.40
2017-12-30T14:45:58.269Z,6.50
2017-12-30T14:48:32.176Z,6.50
2017-12-30T14:51:05.756Z,6.60
2017-12-30T14:53:40.530Z,6.60
2017-12-30T14:56:14.200Z,6.60
2017-12-30T14:58:48.031Z,6.60
2017-12-30T15:01:21.901Z,6.70
2017-12-30T15:03:56.462Z,6.80
2017-12-30T15:06:30.341Z,6.80
2017-12-30T15:09:04.039Z,6.90
2017-12-30T15:11:37.763Z,7.00
2017-12-30T15:14:12.531Z,7.10
2017-12-30T15:16:46.214Z,7.20
2017-12-30T15:19:20.019Z,7.20
2017-12-30T15:21:53.642Z,7.30
2017-12-30T15:24:27.280Z,7.40
2017-12-30T15:27:01.733Z,7.70
2017-12-30T15:29:36.679Z,8.00
2017-12-30T15:32:10.348Z,8.00
2017-12-30T15:34:44.836Z,8.60
2017-12-30T15:37:18.642Z,8.60
2017-12-30T15:39:52.428Z,9.00
2017-12-30T15:42:26.001Z,9.20
2017-12-30T15:45:01.153Z,9.70
2017-12-30T15:47:35.496Z,9.60
2017-12-30T15:50:09.510Z,9.70
2017-12-30T15:52:44.216Z,9.70
2017-12-30T15:55:18.601Z,9.90
2017-12-30T15:57:52.460Z,9.90
2017-12-30T16:00:26.178Z,10.00
2017-12-30T16:02:59.976Z,10.10
2017-12-30T16:05:33.622Z,10.20
2017-12-30T16:08:07.377Z,10.20
2017-12-30T16:10:41.027Z,10.30
2017-12-30T16:13:15.568Z,10.40
2017-12-30T16:15:49.376Z,10.30
2017-12-30T16:18:23.635Z,10.30
2017-12-30T16:20:57.418Z,10.30
2017-12-30T16:23:31.234Z,10.30
2017-12-30T16:26:04.948Z,10.30
2017-12-30T16:28:38.756Z,10.40
2017-12-30T16:31:12.551Z,10.50
2017-12-30T16:33:46.300Z,10.50
2017-12-30T16:36:20.100Z,10.60
2017-12-30T16:38:54.842Z,10.60
2017-12-30T16:41:29.295Z,10.60
2017-12-30T16:44:03.808Z,10.50
2017-12-30T16:46:37.647Z,10.50
2017-12-30T16:49:12.205Z,10.50
2017-12-30T16:51:46.142Z,10.50
2017-12-30T16:54:20.809Z,10.60
2017-12-30T16:56:55.435Z,10.60
2017-12-30T16:59:30.058Z,10.50
2017-12-30T17:02:03.828Z,10.50
2017-12-30T17:04:37.724Z,10.40
2017-12-30T17:07:12.188Z,10.30
2017-12-30T17:09:46.358Z,10.30
2017-12-30T17:12:20.229Z,10.20
2017-12-30T17:14:54.068Z,10.20
2017-12-30T17:17:27.791Z,10.10
2017-12-30T17:20:02.673Z,10.00
2017-12-30T17:22:36.542Z,10.00
2017-12-30T17:25:10.242Z,10.10
2017-12-30T17:27:44.969Z,10.10
2017-12-30T17:30:18.728Z,10.20
2017-12-30T17:32:53.266Z,10.20
2017-12-30T17:35:30.771Z,10.20
2017-12-30T17:38:04.620Z,10.20
2017-12-30T17:40:39.166Z,10.30
2017-12-30T17:43:13.101Z,10.30
2017-12-30T17:45:47.795Z,10.30
2017-12-30T17:48:22.579Z,10.40
2017-12-30T17:50:57.132Z,10.50
2017-12-30T17:53:30.906Z,10.40
2017-12-30T17:56:04.588Z,10.60
2017-12-30T17:58:40.109Z,10.40
2017-12-30T18:01:14.279Z,10.40
2017-12-30T18:03:48.135Z,10.30
2017-12-30T18:06:23.789Z,10.20
2017-12-30T18:08:57.481Z,10.10
2017-12-30T18:11:31.224Z,9.90
2017-12-30T18:14:04.985Z,9.80
2017-12-30T18:16:39.188Z,9.70
2017-12-30T18:19:13.004Z,9.60
2017-12-30T18:21:47.617Z,9.60
2017-12-30T18:24:21.234Z,9.60
2017-12-30T18:26:54.969Z,9.50
2017-12-30T18:29:30.345Z,9.30
2017-12-30T18:32:03.976Z,9.30
2017-12-30T18:34:38.041Z,9.30
2017-12-30T18:37:15.501Z,9.20
2017-12-30T18:39:49.218Z,9.20
2017-12-30T18:42:23.628Z,9.10
2017-12-30T18:44:57.388Z,9.10
2017-12-30T18:47:31.187Z,9.10
2017-12-30T18:50:04.845Z,9.10
2017-12-30T18:52:38.703Z,9.10
2017-12-30T18:55:12.382Z,9.20
2017-12-30T18:57:48.100Z,9.20
2017-12-30T19:00:21.722Z,9.30
2017-12-30T19:02:55.642Z,9.30
2017-12-30T19:05:29.416Z,9.40
2017-12-30T19:08:03.189Z,9.40
2017-12-30T19:10:36.922Z,9.40
2017-12-30T19:13:10.682Z,9.40
2017-12-30T19:15:45.252Z,9.50
2017-12-30T19:18:18.980Z,9.40
2017-12-30T19:20:52.792Z,9.40
2017-12-30T19:23:26.524Z,9.40
2017-12-30T19:26:00.184Z,9.50
2017-12-30T19:28:33.950Z,9.40
2017-12-30T19:31:07.755Z,9.60
2017-12-30T19:33:42.202Z,9.70
2017-12-30T19:36:15.888Z,9.60
2017-12-30T19:38:49.657Z,9.80
2017-12-30T19:41:23.415Z,9.80
2017-12-30T19:43:57.113Z,9.80
2017-12-30T19:46:31.538Z,9.80
2017-12-30T19:49:05.304Z,9.80
2017-12-30T19:51:39.084Z,9.80
2017-12-30T19:54:12.848Z,9.90
2017-12-30T19:56:47.458Z,10.00
2017-12-30T19:59:21.912Z,10.20
2017-12-30T20:01:55.706Z,10.10
2017-12-30T20:04:30.130Z,10.20
2017-12-30T20:07:03.960Z,10.20
2017-12-30T20:09:37.915Z,10.30
2017-12-30T20:12:11.496Z,10.30
2017-12-30T20:14:45.392Z,10.30
2017-12-30T20:17:19.211Z,10.40
2017-12-30T20:19:54.829Z,10.50
2017-12-30T20:22:28.648Z,10.50
2017-12-30T20:25:02.372Z,10.50
2017-12-30T20:27:36.099Z,10.60
2017-12-30T20:30:09.968Z,10.60
2017-12-30T20:32:43.780Z,10.60
2017-12-30T20:35:18.434Z,10.50
2017-12-30T20:37:52.972Z,10.50
2017-12-30T20:40:27.453Z,10.50
2017-12-30T20:43:01.166Z,10.50
2017-12-30T20:45:34.955Z,10.50
2017-12-30T20:48:09.577Z,10.50
2017-12-30T20:50:43.468Z,10.50
2017-12-30T20:53:17.039Z,10.60
2017-12-30T20:55:50.836Z,10.50
2017-12-30T20:58:24.477Z,10.50
2017-12-30T21:00:58.221Z,10.60
2017-12-30T21:03:31.999Z,10.50
2017-12-30T21:06:06.623Z,10.60
2017-12-30T21:08:41.225Z,10.50
2017-12-30T21:11:16.761Z,10.50
2017-12-30T21:13:51.181Z,10.50
2017-12-30T21:16:24.996Z,10.40
2017-12-30T21:18:58.720Z,10.40
2017-12-30T21:21:32.409Z,10.40
2017-12-30T21:24:06.265Z,10.40
2017-12-30T21:26:40.912Z,10.40
2017-12-30T21:29:15.432Z,10.40
2017-12-30T21:31:49.225Z,10.40
2017-12-30T21:34:23.729Z,10.20
2017-12-30T21:36:58.281Z,10.20
2017-12-30T21:39:31.909Z,10.20
2017-12-30T21:42:07.136Z,10.20
2017-12-30T21:44:40.936Z,9.90
2017-12-30T21:47:14.674Z,9.60
2017-12-30T21:49:48.440Z,9.40
2017-12-30T21:52:22.961Z,9.30
2017-12-30T21:54:56.727Z,9.30
2017-12-30T21:57:31.128Z,9.10
2017-12-30T22:00:05.003Z,9.10
2017-12-30T22:02:38.703Z,9.00
2017-12-30T22:05:12.425Z,8.70
2017-12-30T22:07:46.225Z,8.60
2017-12-30T22:10:20.782Z,8.70
2017-12-30T22:12:54.692Z,8.70
2017-12-30T22:15:28.461Z,8.80
2017-12-30T22:18:02.230Z,8.80
2017-12-30T22:20:36.408Z,8.80
2017-12-30T22:23:10.104Z,8.80
2017-12-30T22:25:43.941Z,8.80
2017-12-30T22:28:17.737Z,8.90
2017-12-30T22:30:52.398Z,8.80
2017-12-30T22:33:26.146Z,8.80
2017-12-30T22:35:59.843Z,8.80
2017-12-30T22:38:33.690Z,8.80
2017-12-30T22:41:07.566Z,8.80
2017-12-30T22:43:41.240Z,8.90
2017-12-30T22:46:15.636Z,9.00
2017-12-30T22:48:49.257Z,9.10
2017-12-30T22:51:23.400Z,9.10
2017-12-30T22:53:57.262Z,9.20
2017-12-30T22:56:31.057Z,9.20
2017-12-30T22:59:04.818Z,9.10
2017-12-30T23:01:39.424Z,9.10
2017-12-30T23:04:13.207Z,9.10
2017-12-30T23:06:47.082Z,9.10
2017-12-30T23:09:20.862Z,9.00
2017-12-30T23:11:54.625Z,9.10
2017-12-30T23:14:29.011Z,9.00
2017-12-30T23:17:03.435Z,9.00
2017-12-30T23:19:37.293Z,9.00
2017-12-30T23:22:11.062Z,9.00
2017-12-30T23:24:44.988Z,9.00
2017-12-30T23:27:18.883Z,9.00
2017-12-30T23:29:52.613Z,9.10
2017-12-30T23:32:27.102Z,9.20
2017-12-30T23:35:00.881Z,9.30
2017-12-30T23:37:34.584Z,9.20
2017-12-30T23:40:08.340Z,9.40
2017-12-30T23:42:41.976Z,9.40
2017-12-30T23:45:15.734Z,9.30
2017-12-30T23:47:49.539Z,9.30
2017-12-30T23:50:23.267Z,9.40
2017-12-30T23:52:56.944Z,9.40
2017-12-30T23:55:31.462Z,9.40
2017-12-30T23:58:05.300Z,9.50
